sensor_id;sensor_type;location;lat;lon;timestamp;temperature;humidity
15413;DHT22;7805;49.554;7.632;2022-08-20T00:01:02;23.90;99.90
15413;DHT22;7805;49.554;7.632;2022-08-20T00:03:37;23.90;99.90
15413;DHT22;7805;49.554;7.632;2022-08-20T00:06:13;23.90;99.90
15413;DHT22;7805;49.554;7.632;2022-08-20T00:08:39;24.00;99.90
15413;DHT22;7805;49.554;7.632;2022-08-20T00:11:07;24.00;99.90
15413;DHT22;7805;49.554;7.632;2022-08-20T00:13:41;23.90;99.90
15413;DHT22;7805;49.554;7.632;2022-08-20T00:16:08;23.90;99.90
15413;DHT22;7805;49.554;7.632;2022-08-20T00:18:35;23.90;99.90
15413;DHT22;7805;49.554;7.632;2022-08-20T00:21:05;23.80;99.90
15413;DHT22;7805;49.554;7.632;2022-08-20T00:23:31;23.80;99.90
15413;DHT22;7805;49.554;7.632;2022-08-20T00:25:57;23.80;99.90
15413;DHT22;7805;49.554;7.632;2022-08-20T00:28:22;23.70;99.90
15413;DHT22;7805;49.554;7.632;2022-08-20T00:30:48;23.70;99.90
15413;DHT22;7805;49.554;7.632;2022-08-20T00:33:18;23.60;99.90
15413;DHT22;7805;49.554;7.632;2022-08-20T00:35:49;23.60;99.90
15413;DHT22;7805;49.554;7.632;2022-08-20T00:38:14;23.60;99.90
15413;DHT22;7805;49.554;7.632;2022-08-20T00:40:52;23.50;99.90
15413;DHT22;7805;49.554;7.632;2022-08-20T00:43:40;23.50;99.90
15413;DHT22;7805;49.554;7.632;2022-08-20T00:46:14;23.50;99.90
15413;DHT22;7805;49.554;7.632;2022-08-20T00:48:44;23.50;99.90
15413;DHT22;7805;49.554;7.632;2022-08-20T00:56:42;23.50;99.90
15413;DHT22;7805;49.554;7.632;2022-08-20T00:59:13;23.50;99.90
15413;DHT22;7805;49.554;7.632;2022-08-20T01:01:40;23.50;99.90
15413;DHT22;7805;49.554;7.632;2022-08-20T01:04:06;23.50;99.90
15413;DHT22;7805;49.554;7.632;2022-08-20T01:06:32;23.50;99.90
15413;DHT22;7805;49.554;7.632;2022-08-20T01:08:58;23.50;99.90
15413;DHT22;7805;49.554;7.632;2022-08-20T01:11:27;23.50;99.90
15413;DHT22;7805;49.554;7.632;2022-08-20T01:13:59;23.40;99.90
15413;DHT22;7805;49.554;7.632;2022-08-20T01:16:29;23.40;99.90
15413;DHT22;7805;49.554;7.632;2022-08-20T01:18:57;23.40;99.90
15413;DHT22;7805;49.554;7.632;2022-08-20T01:21:25;23.40;99.90
15413;DHT22;7805;49.554;7.632;2022-08-20T01:24:05;23.40;99.90
15413;DHT22;7805;49.554;7.632;2022-08-20T01:26:42;23.30;99.90
15413;DHT22;7805;49.554;7.632;2022-08-20T01:29:15;23.20;99.90
15413;DHT22;7805;49.554;7.632;2022-08-20T01:31:42;23.00;99.90
15413;DHT22;7805;49.554;7.632;2022-08-20T01:34:11;23.00;99.90
15413;DHT22;7805;49.554;7.632;2022-08-20T01:36:43;23.00;99.90
15413;DHT22;7805;49.554;7.632;2022-08-20T01:39:11;22.90;99.90
15413;DHT22;7805;49.554;7.632;2022-08-20T01:44:26;22.90;99.90
15413;DHT22;7805;49.554;7.632;2022-08-20T01:46:53;22.90;99.90
15413;DHT22;7805;49.554;7.632;2022-08-20T01:49:28;22.90;99.90
15413;DHT22;7805;49.554;7.632;2022-08-20T01:51:59;22.80;99.90
15413;DHT22;7805;49.554;7.632;2022-08-20T01:54:25;22.70;99.90
15413;DHT22;7805;49.554;7.632;2022-08-20T01:59:20;22.70;99.90
15413;DHT22;7805;49.554;7.632;2022-08-20T02:01:46;22.70;99.90
15413;DHT22;7805;49.554;7.632;2022-08-20T02:04:12;22.80;99.90
15413;DHT22;7805;49.554;7.632;2022-08-20T02:06:41;22.80;99.90
15413;DHT22;7805;49.554;7.632;2022-08-20T02:09:08;22.80;99.90
15413;DHT22;7805;49.554;7.632;2022-08-20T02:11:35;22.80;99.90
15413;DHT22;7805;49.554;7.632;2022-08-20T02:14:02;22.80;99.90
15413;DHT22;7805;49.554;7.632;2022-08-20T02:16:33;22.80;99.90
15413;DHT22;7805;49.554;7.632;2022-08-20T02:19:04;22.80;99.90
15413;DHT22;7805;49.554;7.632;2022-08-20T02:21:34;22.80;99.90
15413;DHT22;7805;49.554;7.632;2022-08-20T02:24:02;22.80;99.90
15413;DHT22;7805;49.554;7.632;2022-08-20T02:26:28;22.70;99.90
15413;DHT22;7805;49.554;7.632;2022-08-20T02:28:53;22.70;99.90
15413;DHT22;7805;49.554;7.632;2022-08-20T02:31:21;22.70;99.90
15413;DHT22;7805;49.554;7.632;2022-08-20T02:33:48;22.60;99.90
15413;DHT22;7805;49.554;7.632;2022-08-20T02:36:15;22.60;99.90
15413;DHT22;7805;49.554;7.632;2022-08-20T02:38:44;22.50;99.90
15413;DHT22;7805;49.554;7.632;2022-08-20T02:41:10;22.50;99.90
15413;DHT22;7805;49.554;7.632;2022-08-20T02:43:37;22.50;99.90
15413;DHT22;7805;49.554;7.632;2022-08-20T02:46:04;22.50;99.90
15413;DHT22;7805;49.554;7.632;2022-08-20T02:48:30;22.50;99.90
15413;DHT22;7805;49.554;7.632;2022-08-20T02:51:00;22.50;99.90
15413;DHT22;7805;49.554;7.632;2022-08-20T02:53:29;22.40;99.90
15413;DHT22;7805;49.554;7.632;2022-08-20T02:55:56;22.30;99.90
15413;DHT22;7805;49.554;7.632;2022-08-20T02:58:22;22.40;99.90
15413;DHT22;7805;49.554;7.632;2022-08-20T03:00:48;22.70;99.90
15413;DHT22;7805;49.554;7.632;2022-08-20T03:03:15;22.50;99.90
15413;DHT22;7805;49.554;7.632;2022-08-20T03:05:45;22.50;99.90
15413;DHT22;7805;49.554;7.632;2022-08-20T03:08:12;22.50;99.90
15413;DHT22;7805;49.554;7.632;2022-08-20T03:10:40;22.50;99.90
15413;DHT22;7805;49.554;7.632;2022-08-20T03:13:07;22.40;99.90
15413;DHT22;7805;49.554;7.632;2022-08-20T03:15:37;22.40;99.90
15413;DHT22;7805;49.554;7.632;2022-08-20T03:18:03;22.40;99.90
15413;DHT22;7805;49.554;7.632;2022-08-20T03:20:29;22.40;99.90
15413;DHT22;7805;49.554;7.632;2022-08-20T03:22:56;22.40;99.90
15413;DHT22;7805;49.554;7.632;2022-08-20T03:25:21;22.40;99.90
15413;DHT22;7805;49.554;7.632;2022-08-20T03:27:47;22.40;99.90
15413;DHT22;7805;49.554;7.632;2022-08-20T03:30:15;22.40;99.90
15413;DHT22;7805;49.554;7.632;2022-08-20T03:32:41;22.50;99.90
15413;DHT22;7805;49.554;7.632;2022-08-20T03:35:10;22.50;99.90
15413;DHT22;7805;49.554;7.632;2022-08-20T03:37:36;22.50;99.90
15413;DHT22;7805;49.554;7.632;2022-08-20T03:40:05;22.50;99.90
15413;DHT22;7805;49.554;7.632;2022-08-20T03:42:34;22.50;99.90
15413;DHT22;7805;49.554;7.632;2022-08-20T03:45:00;22.50;99.90
15413;DHT22;7805;49.554;7.632;2022-08-20T03:47:26;22.50;99.90
15413;DHT22;7805;49.554;7.632;2022-08-20T03:49:57;22.50;99.90
15413;DHT22;7805;49.554;7.632;2022-08-20T03:52:23;22.50;99.90
15413;DHT22;7805;49.554;7.632;2022-08-20T03:54:48;22.50;99.90
15413;DHT22;7805;49.554;7.632;2022-08-20T03:57:15;22.50;99.90
15413;DHT22;7805;49.554;7.632;2022-08-20T03:59:42;22.50;99.90
15413;DHT22;7805;49.554;7.632;2022-08-20T04:02:11;22.40;99.90
15413;DHT22;7805;49.554;7.632;2022-08-20T04:04:38;22.40;99.90
15413;DHT22;7805;49.554;7.632;2022-08-20T04:07:24;22.40;99.90
15413;DHT22;7805;49.554;7.632;2022-08-20T04:09:52;22.40;99.90
15413;DHT22;7805;49.554;7.632;2022-08-20T04:12:18;22.30;99.90
15413;DHT22;7805;49.554;7.632;2022-08-20T04:14:44;22.30;99.90
15413;DHT22;7805;49.554;7.632;2022-08-20T04:17:11;22.20;99.90
15413;DHT22;7805;49.554;7.632;2022-08-20T04:19:39;22.20;99.90
15413;DHT22;7805;49.554;7.632;2022-08-20T04:22:05;22.20;99.90
15413;DHT22;7805;49.554;7.632;2022-08-20T04:24:33;22.10;99.90
15413;DHT22;7805;49.554;7.632;2022-08-20T04:26:59;22.10;99.90
15413;DHT22;7805;49.554;7.632;2022-08-20T04:29:27;22.20;99.90
15413;DHT22;7805;49.554;7.632;2022-08-20T04:31:53;22.10;99.90
15413;DHT22;7805;49.554;7.632;2022-08-20T04:34:20;22.10;99.90
15413;DHT22;7805;49.554;7.632;2022-08-20T04:36:46;22.10;99.90
15413;DHT22;7805;49.554;7.632;2022-08-20T04:39:13;22.10;99.90
15413;DHT22;7805;49.554;7.632;2022-08-20T04:41:39;22.20;99.90
15413;DHT22;7805;49.554;7.632;2022-08-20T04:44:06;22.20;99.90
15413;DHT22;7805;49.554;7.632;2022-08-20T04:46:31;22.20;99.90
15413;DHT22;7805;49.554;7.632;2022-08-20T04:48:57;22.20;99.90
15413;DHT22;7805;49.554;7.632;2022-08-20T04:51:23;22.20;99.90
15413;DHT22;7805;49.554;7.632;2022-08-20T04:53:50;22.10;99.90
15413;DHT22;7805;49.554;7.632;2022-08-20T04:56:15;22.10;99.90
15413;DHT22;7805;49.554;7.632;2022-08-20T04:58:42;22.10;99.90
15413;DHT22;7805;49.554;7.632;2022-08-20T05:01:13;22.10;99.90
15413;DHT22;7805;49.554;7.632;2022-08-20T05:03:40;22.10;99.90
15413;DHT22;7805;49.554;7.632;2022-08-20T05:06:07;22.00;99.90
15413;DHT22;7805;49.554;7.632;2022-08-20T05:08:33;22.00;99.90
15413;DHT22;7805;49.554;7.632;2022-08-20T05:11:00;22.00;99.90
15413;DHT22;7805;49.554;7.632;2022-08-20T05:13:26;22.00;99.90
15413;DHT22;7805;49.554;7.632;2022-08-20T05:15:55;22.10;99.90
15413;DHT22;7805;49.554;7.632;2022-08-20T05:18:24;22.10;99.90
15413;DHT22;7805;49.554;7.632;2022-08-20T05:20:52;22.10;99.90
15413;DHT22;7805;49.554;7.632;2022-08-20T05:23:19;22.20;99.90
15413;DHT22;7805;49.554;7.632;2022-08-20T05:25:48;22.10;99.90
15413;DHT22;7805;49.554;7.632;2022-08-20T05:28:19;22.00;99.90
15413;DHT22;7805;49.554;7.632;2022-08-20T05:30:47;22.00;99.90
15413;DHT22;7805;49.554;7.632;2022-08-20T05:33:14;22.00;99.90
15413;DHT22;7805;49.554;7.632;2022-08-20T05:35:43;22.00;99.90
15413;DHT22;7805;49.554;7.632;2022-08-20T05:38:11;22.00;99.90
15413;DHT22;7805;49.554;7.632;2022-08-20T05:40:38;22.00;99.90
15413;DHT22;7805;49.554;7.632;2022-08-20T05:43:05;22.00;99.90
15413;DHT22;7805;49.554;7.632;2022-08-20T05:45:32;22.00;99.90
15413;DHT22;7805;49.554;7.632;2022-08-20T05:47:58;21.90;99.90
15413;DHT22;7805;49.554;7.632;2022-08-20T05:50:27;21.90;99.90
15413;DHT22;7805;49.554;7.632;2022-08-20T05:52:53;21.80;99.90
15413;DHT22;7805;49.554;7.632;2022-08-20T05:55:19;21.70;99.90
15413;DHT22;7805;49.554;7.632;2022-08-20T05:57:44;21.90;99.90
15413;DHT22;7805;49.554;7.632;2022-08-20T06:00:12;22.00;99.90
15413;DHT22;7805;49.554;7.632;2022-08-20T06:02:38;22.00;99.90
15413;DHT22;7805;49.554;7.632;2022-08-20T06:05:23;21.90;99.90
15413;DHT22;7805;49.554;7.632;2022-08-20T06:07:49;21.90;99.90
15413;DHT22;7805;49.554;7.632;2022-08-20T06:10:15;21.70;99.90
15413;DHT22;7805;49.554;7.632;2022-08-20T06:12:41;21.60;99.90
15413;DHT22;7805;49.554;7.632;2022-08-20T06:15:10;21.60;99.90
15413;DHT22;7805;49.554;7.632;2022-08-20T06:17:37;21.50;99.90
15413;DHT22;7805;49.554;7.632;2022-08-20T06:20:05;21.50;99.90
15413;DHT22;7805;49.554;7.632;2022-08-20T06:22:32;21.60;99.90
15413;DHT22;7805;49.554;7.632;2022-08-20T06:24:58;21.40;99.90
15413;DHT22;7805;49.554;7.632;2022-08-20T06:27:24;21.50;99.90
15413;DHT22;7805;49.554;7.632;2022-08-20T06:29:51;21.60;99.90
15413;DHT22;7805;49.554;7.632;2022-08-20T06:32:17;21.60;99.90
15413;DHT22;7805;49.554;7.632;2022-08-20T06:34:44;21.60;99.90
15413;DHT22;7805;49.554;7.632;2022-08-20T06:37:22;21.50;99.90
15413;DHT22;7805;49.554;7.632;2022-08-20T06:39:52;23.70;99.90
15413;DHT22;7805;49.554;7.632;2022-08-20T06:42:18;21.60;99.90
15413;DHT22;7805;49.554;7.632;2022-08-20T06:44:45;21.70;99.90
15413;DHT22;7805;49.554;7.632;2022-08-20T06:47:16;21.70;99.90
15413;DHT22;7805;49.554;7.632;2022-08-20T06:49:42;21.70;99.90
15413;DHT22;7805;49.554;7.632;2022-08-20T06:52:08;21.90;99.90
15413;DHT22;7805;49.554;7.632;2022-08-20T06:54:34;21.90;99.90
15413;DHT22;7805;49.554;7.632;2022-08-20T06:57:00;21.90;99.90
15413;DHT22;7805;49.554;7.632;2022-08-20T06:59:26;22.00;99.90
15413;DHT22;7805;49.554;7.632;2022-08-20T07:01:51;22.20;99.90
15413;DHT22;7805;49.554;7.632;2022-08-20T07:04:24;22.30;99.90
15413;DHT22;7805;49.554;7.632;2022-08-20T07:06:50;22.30;99.90
15413;DHT22;7805;49.554;7.632;2022-08-20T07:09:17;22.40;99.90
15413;DHT22;7805;49.554;7.632;2022-08-20T07:11:43;22.50;99.90
15413;DHT22;7805;49.554;7.632;2022-08-20T07:14:10;22.70;99.90
15413;DHT22;7805;49.554;7.632;2022-08-20T07:16:36;22.90;99.90
15413;DHT22;7805;49.554;7.632;2022-08-20T07:19:02;23.10;99.90
15413;DHT22;7805;49.554;7.632;2022-08-20T07:21:27;23.10;99.90
15413;DHT22;7805;49.554;7.632;2022-08-20T07:23:54;23.10;99.90
15413;DHT22;7805;49.554;7.632;2022-08-20T07:26:20;23.20;99.90
15413;DHT22;7805;49.554;7.632;2022-08-20T07:28:46;23.20;99.90
15413;DHT22;7805;49.554;7.632;2022-08-20T07:31:12;23.20;99.90
15413;DHT22;7805;49.554;7.632;2022-08-20T07:33:56;23.10;99.90
15413;DHT22;7805;49.554;7.632;2022-08-20T07:36:21;23.00;99.90
15413;DHT22;7805;49.554;7.632;2022-08-20T07:38:47;23.00;99.90
15413;DHT22;7805;49.554;7.632;2022-08-20T07:41:15;23.00;99.90
15413;DHT22;7805;49.554;7.632;2022-08-20T07:43:42;23.10;99.90
15413;DHT22;7805;49.554;7.632;2022-08-20T07:46:11;23.10;99.90
15413;DHT22;7805;49.554;7.632;2022-08-20T07:48:39;23.30;99.90
15413;DHT22;7805;49.554;7.632;2022-08-20T07:51:06;23.30;99.90
15413;DHT22;7805;49.554;7.632;2022-08-20T07:53:35;23.40;99.90
15413;DHT22;7805;49.554;7.632;2022-08-20T07:56:05;23.50;99.90
15413;DHT22;7805;49.554;7.632;2022-08-20T07:58:32;23.70;99.90
15413;DHT22;7805;49.554;7.632;2022-08-20T08:01:00;23.90;99.90
15413;DHT22;7805;49.554;7.632;2022-08-20T08:03:26;24.00;99.90
15413;DHT22;7805;49.554;7.632;2022-08-20T08:05:54;24.10;99.90
15413;DHT22;7805;49.554;7.632;2022-08-20T08:08:22;24.10;99.90
15413;DHT22;7805;49.554;7.632;2022-08-20T08:10:54;24.30;99.90
15413;DHT22;7805;49.554;7.632;2022-08-20T08:13:20;24.50;99.90
15413;DHT22;7805;49.554;7.632;2022-08-20T08:15:51;24.60;99.90
15413;DHT22;7805;49.554;7.632;2022-08-20T08:18:23;24.90;99.90
15413;DHT22;7805;49.554;7.632;2022-08-20T08:20:50;24.80;99.90
15413;DHT22;7805;49.554;7.632;2022-08-20T08:23:19;24.90;99.90
15413;DHT22;7805;49.554;7.632;2022-08-20T08:25:45;25.20;99.90
15413;DHT22;7805;49.554;7.632;2022-08-20T08:28:12;25.40;99.90
15413;DHT22;7805;49.554;7.632;2022-08-20T08:30:39;25.60;99.90
15413;DHT22;7805;49.554;7.632;2022-08-20T08:33:07;25.80;99.90
15413;DHT22;7805;49.554;7.632;2022-08-20T08:35:52;25.60;99.90
15413;DHT22;7805;49.554;7.632;2022-08-20T08:38:19;25.80;99.90
15413;DHT22;7805;49.554;7.632;2022-08-20T08:40:46;26.10;99.90
15413;DHT22;7805;49.554;7.632;2022-08-20T08:43:13;26.60;99.60
15413;DHT22;7805;49.554;7.632;2022-08-20T08:45:41;27.00;98.60
15413;DHT22;7805;49.554;7.632;2022-08-20T08:48:18;27.30;97.60
15413;DHT22;7805;49.554;7.632;2022-08-20T08:50:46;27.50;96.50
15413;DHT22;7805;49.554;7.632;2022-08-20T08:53:25;27.40;96.60
15413;DHT22;7805;49.554;7.632;2022-08-20T08:55:52;27.10;96.10
15413;DHT22;7805;49.554;7.632;2022-08-20T08:58:18;26.90;96.60
15413;DHT22;7805;49.554;7.632;2022-08-20T09:00:43;26.80;96.80
15413;DHT22;7805;49.554;7.632;2022-08-20T09:03:23;26.50;96.80
15413;DHT22;7805;49.554;7.632;2022-08-20T09:05:54;26.30;97.10
15413;DHT22;7805;49.554;7.632;2022-08-20T09:08:26;24.50;96.20
15413;DHT22;7805;49.554;7.632;2022-08-20T09:10:53;26.70;96.60
15413;DHT22;7805;49.554;7.632;2022-08-20T09:13:19;27.00;96.50
15413;DHT22;7805;49.554;7.632;2022-08-20T09:15:44;27.30;95.80
15413;DHT22;7805;49.554;7.632;2022-08-20T09:18:10;27.50;95.30
15413;DHT22;7805;49.554;7.632;2022-08-20T09:20:36;27.40;94.50
15413;DHT22;7805;49.554;7.632;2022-08-20T09:23:04;27.20;94.70
15413;DHT22;7805;49.554;7.632;2022-08-20T09:25:30;26.80;94.70
15413;DHT22;7805;49.554;7.632;2022-08-20T09:27:56;26.60;94.80
15413;DHT22;7805;49.554;7.632;2022-08-20T09:30:22;26.40;94.80
15413;DHT22;7805;49.554;7.632;2022-08-20T09:32:47;26.40;95.10
15413;DHT22;7805;49.554;7.632;2022-08-20T09:35:13;26.60;95.30
15413;DHT22;7805;49.554;7.632;2022-08-20T09:37:39;27.00;95.00
15413;DHT22;7805;49.554;7.632;2022-08-20T09:40:06;27.30;94.20
15413;DHT22;7805;49.554;7.632;2022-08-20T09:42:34;27.50;93.90
15413;DHT22;7805;49.554;7.632;2022-08-20T09:45:01;27.70;93.30
15413;DHT22;7805;49.554;7.632;2022-08-20T09:47:27;27.70;93.10
15413;DHT22;7805;49.554;7.632;2022-08-20T09:49:53;27.60;93.30
15413;DHT22;7805;49.554;7.632;2022-08-20T09:52:21;27.60;93.30
15413;DHT22;7805;49.554;7.632;2022-08-20T09:54:48;27.80;92.20
15413;DHT22;7805;49.554;7.632;2022-08-20T09:57:15;27.80;92.10
15413;DHT22;7805;49.554;7.632;2022-08-20T09:59:41;28.20;92.00
15413;DHT22;7805;49.554;7.632;2022-08-20T10:02:07;28.40;91.70
15413;DHT22;7805;49.554;7.632;2022-08-20T10:04:32;28.70;90.60
15413;DHT22;7805;49.554;7.632;2022-08-20T10:06:58;28.80;87.80
15413;DHT22;7805;49.554;7.632;2022-08-20T10:09:24;28.70;86.70
15413;DHT22;7805;49.554;7.632;2022-08-20T10:11:49;28.70;82.60
15413;DHT22;7805;49.554;7.632;2022-08-20T10:14:15;28.40;73.00
15413;DHT22;7805;49.554;7.632;2022-08-20T10:16:40;28.20;78.10
15413;DHT22;7805;49.554;7.632;2022-08-20T10:19:06;28.40;78.00
15413;DHT22;7805;49.554;7.632;2022-08-20T10:21:32;28.60;75.70
15413;DHT22;7805;49.554;7.632;2022-08-20T10:23:58;28.80;76.70
15413;DHT22;7805;49.554;7.632;2022-08-20T10:26:24;28.70;73.90
15413;DHT22;7805;49.554;7.632;2022-08-20T10:28:50;28.60;74.50
15413;DHT22;7805;49.554;7.632;2022-08-20T10:31:15;28.70;73.60
15413;DHT22;7805;49.554;7.632;2022-08-20T10:33:41;28.80;72.00
15413;DHT22;7805;49.554;7.632;2022-08-20T10:36:15;29.00;69.60
15413;DHT22;7805;49.554;7.632;2022-08-20T10:38:42;29.00;67.00
15413;DHT22;7805;49.554;7.632;2022-08-20T10:41:09;29.30;67.20
15413;DHT22;7805;49.554;7.632;2022-08-20T10:43:35;29.60;66.70
15413;DHT22;7805;49.554;7.632;2022-08-20T10:46:00;29.60;62.90
15413;DHT22;7805;49.554;7.632;2022-08-20T10:48:27;29.30;61.70
15413;DHT22;7805;49.554;7.632;2022-08-20T10:50:52;28.60;60.60
15413;DHT22;7805;49.554;7.632;2022-08-20T10:53:18;28.60;62.50
15413;DHT22;7805;49.554;7.632;2022-08-20T10:55:44;28.70;64.20
15413;DHT22;7805;49.554;7.632;2022-08-20T10:58:10;29.00;62.90
15413;DHT22;7805;49.554;7.632;2022-08-20T11:00:38;29.00;61.40
15413;DHT22;7805;49.554;7.632;2022-08-20T11:03:03;29.10;61.70
15413;DHT22;7805;49.554;7.632;2022-08-20T11:05:29;29.50;61.40
15413;DHT22;7805;49.554;7.632;2022-08-20T11:07:55;29.40;58.30
15413;DHT22;7805;49.554;7.632;2022-08-20T11:10:21;29.30;59.00
15413;DHT22;7805;49.554;7.632;2022-08-20T11:12:47;28.90;57.30
15413;DHT22;7805;49.554;7.632;2022-08-20T11:15:14;28.70;58.70
15413;DHT22;7805;49.554;7.632;2022-08-20T11:17:42;28.90;60.60
15413;DHT22;7805;49.554;7.632;2022-08-20T11:20:09;29.10;59.60
15413;DHT22;7805;49.554;7.632;2022-08-20T11:22:35;29.20;57.50
15413;DHT22;7805;49.554;7.632;2022-08-20T11:25:03;29.20;56.30
15413;DHT22;7805;49.554;7.632;2022-08-20T11:27:38;29.80;56.70
15413;DHT22;7805;49.554;7.632;2022-08-20T11:30:06;30.00;56.30
15413;DHT22;7805;49.554;7.632;2022-08-20T11:32:32;30.30;55.00
15413;DHT22;7805;49.554;7.632;2022-08-20T11:34:58;30.50;53.30
15413;DHT22;7805;49.554;7.632;2022-08-20T11:37:24;30.30;52.60
15413;DHT22;7805;49.554;7.632;2022-08-20T11:39:50;30.30;51.10
15413;DHT22;7805;49.554;7.632;2022-08-20T11:42:15;30.30;50.30
15413;DHT22;7805;49.554;7.632;2022-08-20T11:44:41;30.70;50.80
15413;DHT22;7805;49.554;7.632;2022-08-20T11:47:07;30.40;48.20
15413;DHT22;7805;49.554;7.632;2022-08-20T11:49:35;30.70;46.90
15413;DHT22;7805;49.554;7.632;2022-08-20T11:52:02;30.80;46.80
15413;DHT22;7805;49.554;7.632;2022-08-20T11:54:28;30.50;46.30
15413;DHT22;7805;49.554;7.632;2022-08-20T11:56:56;30.30;47.50
15413;DHT22;7805;49.554;7.632;2022-08-20T11:59:23;30.50;48.60
15413;DHT22;7805;49.554;7.632;2022-08-20T12:01:49;30.70;48.70
15413;DHT22;7805;49.554;7.632;2022-08-20T12:04:14;31.10;49.30
15413;DHT22;7805;49.554;7.632;2022-08-20T12:06:40;31.30;48.20
15413;DHT22;7805;49.554;7.632;2022-08-20T12:09:05;31.50;48.60
15413;DHT22;7805;49.554;7.632;2022-08-20T12:11:31;31.90;48.30
15413;DHT22;7805;49.554;7.632;2022-08-20T12:13:56;32.10;47.90
15413;DHT22;7805;49.554;7.632;2022-08-20T12:16:22;32.10;46.90
15413;DHT22;7805;49.554;7.632;2022-08-20T12:18:47;32.00;45.50
15413;DHT22;7805;49.554;7.632;2022-08-20T12:21:14;32.00;46.40
15413;DHT22;7805;49.554;7.632;2022-08-20T12:23:39;32.20;45.80
15413;DHT22;7805;49.554;7.632;2022-08-20T12:26:05;32.30;45.30
15413;DHT22;7805;49.554;7.632;2022-08-20T12:28:31;32.20;44.60
15413;DHT22;7805;49.554;7.632;2022-08-20T12:30:57;32.00;42.50
15413;DHT22;7805;49.554;7.632;2022-08-20T12:33:23;32.00;41.50
15413;DHT22;7805;49.554;7.632;2022-08-20T12:35:48;31.90;40.30
15413;DHT22;7805;49.554;7.632;2022-08-20T12:38:14;31.70;39.90
15413;DHT22;7805;49.554;7.632;2022-08-20T12:40:39;31.70;40.90
15413;DHT22;7805;49.554;7.632;2022-08-20T12:43:05;31.80;40.50
15413;DHT22;7805;49.554;7.632;2022-08-20T12:45:33;31.60;39.20
15413;DHT22;7805;49.554;7.632;2022-08-20T12:48:07;31.30;38.50
15413;DHT22;7805;49.554;7.632;2022-08-20T12:50:34;31.20;38.80
15413;DHT22;7805;49.554;7.632;2022-08-20T12:53:01;31.50;38.50
15413;DHT22;7805;49.554;7.632;2022-08-20T12:55:27;31.90;37.60
15413;DHT22;7805;49.554;7.632;2022-08-20T12:57:56;32.80;37.50
15413;DHT22;7805;49.554;7.632;2022-08-20T13:00:32;31.80;34.60
15413;DHT22;7805;49.554;7.632;2022-08-20T13:03:00;31.20;34.60
15413;DHT22;7805;49.554;7.632;2022-08-20T13:05:27;31.00;35.70
15413;DHT22;7805;49.554;7.632;2022-08-20T13:07:54;30.50;35.30
15413;DHT22;7805;49.554;7.632;2022-08-20T13:10:23;30.70;36.10
15413;DHT22;7805;49.554;7.632;2022-08-20T13:12:50;30.90;34.90
15413;DHT22;7805;49.554;7.632;2022-08-20T13:15:16;31.00;35.40
15413;DHT22;7805;49.554;7.632;2022-08-20T13:17:42;31.40;35.60
15413;DHT22;7805;49.554;7.632;2022-08-20T13:20:12;31.80;36.00
15413;DHT22;7805;49.554;7.632;2022-08-20T13:22:38;32.30;34.90
15413;DHT22;7805;49.554;7.632;2022-08-20T13:25:05;32.40;34.30
15413;DHT22;7805;49.554;7.632;2022-08-20T13:27:31;32.50;34.50
15413;DHT22;7805;49.554;7.632;2022-08-20T13:29:56;32.40;33.30
15413;DHT22;7805;49.554;7.632;2022-08-20T13:32:22;32.50;34.00
15413;DHT22;7805;49.554;7.632;2022-08-20T13:34:49;32.80;33.20
15413;DHT22;7805;49.554;7.632;2022-08-20T13:37:20;32.90;33.50
15413;DHT22;7805;49.554;7.632;2022-08-20T13:39:46;32.80;33.50
15413;DHT22;7805;49.554;7.632;2022-08-20T13:42:13;32.80;34.70
15413;DHT22;7805;49.554;7.632;2022-08-20T13:44:39;33.00;34.90
15413;DHT22;7805;49.554;7.632;2022-08-20T13:47:17;32.80;35.00
15413;DHT22;7805;49.554;7.632;2022-08-20T13:49:43;32.50;35.00
15413;DHT22;7805;49.554;7.632;2022-08-20T13:52:09;32.30;35.80
15413;DHT22;7805;49.554;7.632;2022-08-20T13:54:35;32.20;36.50
15413;DHT22;7805;49.554;7.632;2022-08-20T13:57:13;32.40;37.30
15413;DHT22;7805;49.554;7.632;2022-08-20T13:59:41;32.40;36.70
15413;DHT22;7805;49.554;7.632;2022-08-20T14:02:09;32.70;37.30
15413;DHT22;7805;49.554;7.632;2022-08-20T14:04:35;32.80;37.90
15413;DHT22;7805;49.554;7.632;2022-08-20T14:09:40;32.90;38.70
15413;DHT22;7805;49.554;7.632;2022-08-20T14:12:08;32.60;38.80
15413;DHT22;7805;49.554;7.632;2022-08-20T14:14:33;32.80;39.70
15413;DHT22;7805;49.554;7.632;2022-08-20T14:17:12;33.00;38.10
15413;DHT22;7805;49.554;7.632;2022-08-20T14:19:37;32.80;38.70
15413;DHT22;7805;49.554;7.632;2022-08-20T14:22:03;32.60;39.10
15413;DHT22;7805;49.554;7.632;2022-08-20T14:24:28;32.60;40.20
15413;DHT22;7805;49.554;7.632;2022-08-20T14:26:54;32.60;40.80
15413;DHT22;7805;49.554;7.632;2022-08-20T14:29:20;32.70;41.00
15413;DHT22;7805;49.554;7.632;2022-08-20T14:31:47;32.30;41.20
15413;DHT22;7805;49.554;7.632;2022-08-20T14:34:12;31.50;42.90
15413;DHT22;7805;49.554;7.632;2022-08-20T14:36:38;31.80;43.60
15413;DHT22;7805;49.554;7.632;2022-08-20T14:39:03;31.80;44.00
15413;DHT22;7805;49.554;7.632;2022-08-20T14:41:29;32.20;43.90
15413;DHT22;7805;49.554;7.632;2022-08-20T14:43:54;32.60;43.90
15413;DHT22;7805;49.554;7.632;2022-08-20T14:46:20;32.30;43.50
15413;DHT22;7805;49.554;7.632;2022-08-20T14:48:46;32.60;43.80
15413;DHT22;7805;49.554;7.632;2022-08-20T14:51:12;32.60;43.50
15413;DHT22;7805;49.554;7.632;2022-08-20T14:53:37;32.70;43.50
15413;DHT22;7805;49.554;7.632;2022-08-20T14:56:03;32.90;43.20
15413;DHT22;7805;49.554;7.632;2022-08-20T14:58:29;32.70;42.70
15413;DHT22;7805;49.554;7.632;2022-08-20T15:00:55;32.40;43.20
15413;DHT22;7805;49.554;7.632;2022-08-20T15:03:20;32.20;43.30
15413;DHT22;7805;49.554;7.632;2022-08-20T15:05:48;32.20;43.70
15413;DHT22;7805;49.554;7.632;2022-08-20T15:08:13;32.40;43.70
15413;DHT22;7805;49.554;7.632;2022-08-20T15:10:40;32.40;43.60
15413;DHT22;7805;49.554;7.632;2022-08-20T15:13:06;32.60;43.50
15413;DHT22;7805;49.554;7.632;2022-08-20T15:15:32;32.40;43.10
15413;DHT22;7805;49.554;7.632;2022-08-20T15:18:02;31.90;43.70
15413;DHT22;7805;49.554;7.632;2022-08-20T15:20:29;31.60;43.60
15413;DHT22;7805;49.554;7.632;2022-08-20T15:22:55;31.40;43.50
15413;DHT22;7805;49.554;7.632;2022-08-20T15:25:23;31.60;43.60
15413;DHT22;7805;49.554;7.632;2022-08-20T15:27:49;32.20;43.80
15413;DHT22;7805;49.554;7.632;2022-08-20T15:30:18;32.70;42.80
15413;DHT22;7805;49.554;7.632;2022-08-20T15:32:45;33.00;42.20
15413;DHT22;7805;49.554;7.632;2022-08-20T15:35:11;32.50;41.80
15413;DHT22;7805;49.554;7.632;2022-08-20T15:37:48;32.30;42.00
15413;DHT22;7805;49.554;7.632;2022-08-20T15:40:18;32.30;42.50
15413;DHT22;7805;49.554;7.632;2022-08-20T15:42:44;32.40;42.00
15413;DHT22;7805;49.554;7.632;2022-08-20T15:45:11;32.60;42.20
15413;DHT22;7805;49.554;7.632;2022-08-20T15:47:47;32.60;41.60
15413;DHT22;7805;49.554;7.632;2022-08-20T15:50:34;32.30;41.70
15413;DHT22;7805;49.554;7.632;2022-08-20T15:53:12;32.40;41.70
15413;DHT22;7805;49.554;7.632;2022-08-20T15:55:45;32.10;42.10
15413;DHT22;7805;49.554;7.632;2022-08-20T15:58:34;32.20;42.00
15413;DHT22;7805;49.554;7.632;2022-08-20T16:04:04;32.60;42.20